createdAt,value
2023-05-25T00:01:03.757Z,8.40
2023-05-25T00:03:28.998Z,8.63
2023-05-25T00:05:53.963Z,9.10
2023-05-25T00:08:18.615Z,8.93
2023-05-25T00:10:43.025Z,8.25
2023-05-25T00:13:10.215Z,9.20
2023-05-25T00:15:34.719Z,8.25
2023-05-25T00:17:59.217Z,8.25
2023-05-25T00:20:24.023Z,7.32
2023-05-25T00:22:48.525Z,8.00
2023-05-25T00:25:12.936Z,7.32
2023-05-25T00:27:37.470Z,7.45
2023-05-25T00:30:03.672Z,6.72
2023-05-25T00:32:32.786Z,8.00
2023-05-25T00:34:57.326Z,7.60
2023-05-25T00:37:21.924Z,7.88
2023-05-25T00:39:49.861Z,6.95
2023-05-25T00:42:14.365Z,7.30
2023-05-25T00:44:38.711Z,7.25
2023-05-25T00:47:05.025Z,7.90
2023-05-25T00:49:31.986Z,8.15
2023-05-25T00:51:57.334Z,7.80
2023-05-25T00:54:22.159Z,7.07
2023-05-25T00:56:49.939Z,7.15
2023-05-25T00:59:19.192Z,7.20
2023-05-25T01:01:44.880Z,7.70
2023-05-25T01:04:13.413Z,7.85
2023-05-25T01:06:40.698Z,7.45
2023-05-25T01:09:07.112Z,7.43
2023-05-25T01:11:35.994Z,7.88
2023-05-25T01:14:01.076Z,6.77
2023-05-25T01:16:26.719Z,6.38
2023-05-25T01:18:52.912Z,7.25
2023-05-25T01:21:23.083Z,8.00
2023-05-25T01:24:00.134Z,6.53
2023-05-25T01:26:28.376Z,6.13
2023-05-25T01:28:54.242Z,6.93
2023-05-25T01:31:22.510Z,6.50
2023-05-25T01:33:49.763Z,6.53
2023-05-25T01:36:14.844Z,6.72
2023-05-25T01:38:40.970Z,6.47
2023-05-25T01:41:05.858Z,7.30
2023-05-25T01:43:30.375Z,6.00
2023-05-25T01:46:00.766Z,6.18
2023-05-25T01:48:31.612Z,5.40
2023-05-25T01:51:00.382Z,6.38
2023-05-25T01:53:28.330Z,5.85
2023-05-25T01:55:57.477Z,6.93
2023-05-25T02:00:49.302Z,5.75
2023-05-25T02:03:14.130Z,5.53
2023-05-25T02:05:42.827Z,6.00
2023-05-25T02:08:07.543Z,5.97
2023-05-25T02:10:32.087Z,5.88
2023-05-25T02:12:57.942Z,6.30
2023-05-25T02:15:23.573Z,6.38
2023-05-25T02:17:48.639Z,5.93
2023-05-25T02:20:33.105Z,6.30
2023-05-25T02:22:57.684Z,5.85
2023-05-25T02:25:22.161Z,6.40
2023-05-25T02:27:47.085Z,5.68
2023-05-25T02:30:13.646Z,5.88
2023-05-25T02:32:38.330Z,5.47
2023-05-25T02:35:02.907Z,6.50
2023-05-25T02:37:30.882Z,6.30
2023-05-25T02:39:55.400Z,5.57
2023-05-25T02:42:20.379Z,6.70
2023-05-25T02:44:48.746Z,5.43
2023-05-25T02:47:14.723Z,5.75
2023-05-25T02:49:39.243Z,5.28
2023-05-25T02:52:05.222Z,5.70
2023-05-25T02:54:29.862Z,5.40
2023-05-25T02:56:56.039Z,5.40
2023-05-25T02:59:20.505Z,5.40
2023-05-25T03:01:45.071Z,5.18
2023-05-25T03:04:11.185Z,5.28
2023-05-25T03:06:36.607Z,5.22
2023-05-25T03:09:15.820Z,5.32
2023-05-25T03:11:40.418Z,5.40
2023-05-25T03:14:07.508Z,5.43
2023-05-25T03:16:36.466Z,5.03
2023-05-25T03:19:02.013Z,5.15
2023-05-25T03:21:28.507Z,5.35
2023-05-25T03:23:53.091Z,5.68
2023-05-25T03:26:17.866Z,5.50
2023-05-25T03:31:12.296Z,5.25
2023-05-25T03:33:37.043Z,5.40
2023-05-25T03:36:01.725Z,5.43
2023-05-25T03:38:27.764Z,5.40
2023-05-25T03:40:52.363Z,5.15
2023-05-25T03:43:16.914Z,5.07
2023-05-25T03:45:44.775Z,5.40
2023-05-25T03:48:09.540Z,5.85
2023-05-25T03:50:34.562Z,5.82
2023-05-25T03:52:59.011Z,5.70
2023-05-25T03:55:24.877Z,5.70
2023-05-25T03:57:49.311Z,5.05
2023-05-25T04:00:15.606Z,5.70
2023-05-25T04:02:41.109Z,6.22
2023-05-25T04:05:07.023Z,5.53
2023-05-25T04:07:32.082Z,5.90
2023-05-25T04:09:58.180Z,6.25
2023-05-25T04:12:24.225Z,6.38
2023-05-25T04:14:48.958Z,8.02
2023-05-25T04:17:13.764Z,6.60
2023-05-25T04:19:38.236Z,6.03
2023-05-25T04:22:18.473Z,5.53
2023-05-25T04:24:43.627Z,6.10
2023-05-25T04:27:08.298Z,6.70
2023-05-25T04:29:34.798Z,7.30
2023-05-25T04:32:09.664Z,6.90
2023-05-25T04:34:50.948Z,8.45
2023-05-25T04:37:21.606Z,7.85
2023-05-25T04:39:46.399Z,7.95
2023-05-25T04:42:11.169Z,7.55
2023-05-25T04:44:37.867Z,7.70
2023-05-25T04:47:03.581Z,7.22
2023-05-25T04:49:31.449Z,7.95
2023-05-25T04:51:56.414Z,6.68
2023-05-25T04:54:21.997Z,6.85
2023-05-25T04:56:47.745Z,7.45
2023-05-25T04:59:12.490Z,6.32
2023-05-25T05:01:40.934Z,5.32
2023-05-25T05:04:07.581Z,6.13
2023-05-25T05:06:32.309Z,6.72
2023-05-25T05:08:57.116Z,7.13
2023-05-25T05:11:23.573Z,5.60
2023-05-25T05:13:48.818Z,5.28
2023-05-25T05:16:13.332Z,6.35
2023-05-25T05:18:39.505Z,5.65
2023-05-25T05:21:04.576Z,6.20
2023-05-25T05:23:29.223Z,6.00
2023-05-25T05:25:53.873Z,5.65
2023-05-25T05:28:19.480Z,6.28
2023-05-25T05:30:46.630Z,5.57
2023-05-25T05:33:12.151Z,6.50
2023-05-25T05:35:43.986Z,5.97
2023-05-25T05:38:18.620Z,6.15
2023-05-25T05:40:43.261Z,5.95
2023-05-25T05:43:08.010Z,6.20
2023-05-25T05:45:32.533Z,6.05
2023-05-25T05:47:57.179Z,6.15
2023-05-25T05:50:22.109Z,6.25
2023-05-25T05:52:48.563Z,6.00
2023-05-25T05:55:13.223Z,6.80
2023-05-25T05:57:39.647Z,5.80
2023-05-25T06:00:06.871Z,6.03
2023-05-25T06:02:41.974Z,6.05
2023-05-25T06:05:10.290Z,5.65
2023-05-25T06:07:38.525Z,5.57
2023-05-25T06:10:05.030Z,6.00
2023-05-25T06:12:30.079Z,6.80
2023-05-25T06:14:55.082Z,6.57
2023-05-25T06:17:20.985Z,6.47
2023-05-25T06:19:46.161Z,6.82
2023-05-25T06:22:10.870Z,6.40
2023-05-25T06:24:35.620Z,6.45
2023-05-25T06:27:03.315Z,6.47
2023-05-25T06:29:28.234Z,6.00
2023-05-25T06:31:52.946Z,6.32
2023-05-25T06:34:17.727Z,6.15
2023-05-25T06:36:42.472Z,6.65
2023-05-25T06:39:07.926Z,6.00
2023-05-25T06:41:32.448Z,6.82
2023-05-25T06:43:58.441Z,6.78
2023-05-25T06:46:30.889Z,6.43
2023-05-25T06:48:57.636Z,6.80
2023-05-25T06:51:23.536Z,6.60
2023-05-25T06:53:47.984Z,5.75
2023-05-25T06:56:12.530Z,7.45
2023-05-25T06:58:37.164Z,7.63
2023-05-25T07:01:03.422Z,6.97
2023-05-25T07:03:27.959Z,7.22
2023-05-25T07:05:52.483Z,6.75
2023-05-25T07:08:17.220Z,6.38
2023-05-25T07:10:41.734Z,6.10
2023-05-25T07:13:06.455Z,5.95
2023-05-25T07:15:30.922Z,5.90
2023-05-25T07:17:57.487Z,5.97
2023-05-25T07:20:22.950Z,6.35
2023-05-25T07:22:48.788Z,5.60
2023-05-25T07:25:13.237Z,5.85
2023-05-25T07:27:40.083Z,6.53
2023-05-25T07:30:04.838Z,5.70
2023-05-25T07:32:31.246Z,5.65
2023-05-25T07:34:57.277Z,6.55
2023-05-25T07:37:21.900Z,6.43
2023-05-25T07:39:46.363Z,6.35
2023-05-25T07:42:11.556Z,6.43
2023-05-25T07:44:36.097Z,6.22
2023-05-25T07:47:00.742Z,6.38
2023-05-25T07:49:25.149Z,6.35
2023-05-25T07:51:50.960Z,6.68
2023-05-25T07:54:15.388Z,6.88
2023-05-25T07:56:40.665Z,6.18
2023-05-25T07:59:05.141Z,6.05
2023-05-25T08:01:29.998Z,5.45
2023-05-25T08:03:54.661Z,6.57
2023-05-25T08:06:19.405Z,6.60
2023-05-25T08:08:45.916Z,5.90
2023-05-25T08:11:10.668Z,5.82
2023-05-25T08:13:35.173Z,6.50
2023-05-25T08:15:59.772Z,6.60
2023-05-25T08:18:24.205Z,6.13
2023-05-25T08:20:48.969Z,6.32
2023-05-25T08:23:13.451Z,6.00
2023-05-25T08:25:39.311Z,5.85
2023-05-25T08:28:03.963Z,6.50
2023-05-25T08:30:29.231Z,6.63
2023-05-25T08:32:53.737Z,6.20
2023-05-25T08:35:18.804Z,6.20
2023-05-25T08:37:43.603Z,6.10
2023-05-25T08:40:10.894Z,6.35
2023-05-25T08:42:36.808Z,5.82
2023-05-25T08:45:02.419Z,6.22
2023-05-25T08:47:33.898Z,6.60
2023-05-25T08:50:01.562Z,6.47
2023-05-25T08:52:34.382Z,6.30
2023-05-25T08:55:02.087Z,6.05
2023-05-25T09:00:06.969Z,6.55
2023-05-25T09:02:37.141Z,6.00
2023-05-25T09:05:02.877Z,6.13
2023-05-25T09:07:29.874Z,5.40
2023-05-25T09:09:55.307Z,6.10
2023-05-25T09:12:20.416Z,5.88
2023-05-25T09:14:47.997Z,6.35
2023-05-25T09:17:15.040Z,5.80
2023-05-25T09:19:39.582Z,6.38
2023-05-25T09:22:15.130Z,6.85
2023-05-25T09:24:44.157Z,6.50
2023-05-25T09:27:11.940Z,6.28
2023-05-25T09:29:36.979Z,7.13
2023-05-25T09:32:01.864Z,6.07
2023-05-25T09:34:34.045Z,5.95
2023-05-25T09:36:59.069Z,6.35
2023-05-25T09:39:24.052Z,6.15
2023-05-25T09:41:48.568Z,6.05
2023-05-25T09:44:13.070Z,6.32
2023-05-25T09:46:39.232Z,5.68
2023-05-25T09:49:04.473Z,5.68
2023-05-25T09:51:33.285Z,5.85
2023-05-25T09:53:57.894Z,5.80
2023-05-25T09:56:24.294Z,5.65
2023-05-25T09:58:52.353Z,5.75
2023-05-25T10:01:17.759Z,5.88
2023-05-25T10:03:59.316Z,5.82
2023-05-25T10:06:29.648Z,6.15
2023-05-25T10:08:57.867Z,6.45
2023-05-25T10:11:25.266Z,6.10
2023-05-25T10:13:51.756Z,5.10
2023-05-25T10:16:18.686Z,5.85
2023-05-25T10:18:48.625Z,5.10
2023-05-25T10:21:14.516Z,5.40
2023-05-25T10:23:44.889Z,5.40
2023-05-25T10:26:11.204Z,6.10
2023-05-25T10:28:38.221Z,5.53
2023-05-25T10:31:04.310Z,6.13
2023-05-25T10:33:32.297Z,5.93
2023-05-25T10:36:09.233Z,5.43
2023-05-25T10:38:35.984Z,5.53
2023-05-25T10:41:03.407Z,5.53
2023-05-25T10:43:28.677Z,5.40
2023-05-25T10:45:54.153Z,5.55
2023-05-25T10:48:19.585Z,5.32
2023-05-25T10:50:50.615Z,5.50
2023-05-25T10:53:16.199Z,5.78
2023-05-25T10:55:45.086Z,5.90
2023-05-25T10:58:13.133Z,5.32
2023-05-25T11:00:37.880Z,5.90
2023-05-25T11:03:03.478Z,5.32
2023-05-25T11:05:39.712Z,5.63
2023-05-25T11:08:07.055Z,5.63
2023-05-25T11:10:54.504Z,5.68
2023-05-25T11:13:39.723Z,6.05
2023-05-25T11:16:22.926Z,6.25
2023-05-25T11:18:51.954Z,5.90
2023-05-25T11:21:18.802Z,5.90
2023-05-25T11:23:55.367Z,6.43
2023-05-25T11:26:23.326Z,6.50
2023-05-25T11:28:51.846Z,6.15
2023-05-25T11:31:16.836Z,6.30
2023-05-25T11:33:45.114Z,6.50
2023-05-25T11:36:10.012Z,6.07
2023-05-25T11:38:35.465Z,7.18
2023-05-25T11:41:00.182Z,6.80
2023-05-25T11:43:27.519Z,7.43
2023-05-25T11:45:58.581Z,6.65
2023-05-25T11:48:23.195Z,7.00
2023-05-25T11:50:47.776Z,7.15
2023-05-25T11:53:12.495Z,7.43
2023-05-25T11:55:41.049Z,5.93
2023-05-25T11:58:05.899Z,6.15
2023-05-25T12:00:30.373Z,6.82
2023-05-25T12:02:57.774Z,6.30
2023-05-25T12:05:23.374Z,6.20
2023-05-25T12:07:48.223Z,6.10
2023-05-25T12:10:15.233Z,5.55
2023-05-25T12:12:42.325Z,5.32
2023-05-25T12:15:08.096Z,5.40
2023-05-25T12:17:35.014Z,4.75
2023-05-25T12:20:01.296Z,4.03
2023-05-25T12:22:28.961Z,4.20
2023-05-25T12:24:53.576Z,4.57
2023-05-25T12:27:19.669Z,4.40
2023-05-25T12:29:50.717Z,4.45
2023-05-25T12:32:15.410Z,4.65
2023-05-25T12:34:39.958Z,4.70
2023-05-25T12:37:06.708Z,5.70
2023-05-25T12:39:38.885Z,5.60
2023-05-25T12:42:05.057Z,6.60
2023-05-25T12:44:31.637Z,6.25
2023-05-25T12:46:57.663Z,5.45
2023-05-25T12:49:30.577Z,5.95
2023-05-25T12:51:55.349Z,6.97
2023-05-25T12:54:35.735Z,6.00
2023-05-25T12:57:02.398Z,5.40
2023-05-25T12:59:27.079Z,5.75
2023-05-25T13:01:51.726Z,5.65
2023-05-25T13:04:16.343Z,6.00
2023-05-25T13:06:41.039Z,5.88
2023-05-25T13:09:05.904Z,5.05
2023-05-25T13:11:31.993Z,5.43
2023-05-25T13:13:56.745Z,5.47
2023-05-25T13:16:21.226Z,4.70
2023-05-25T13:18:45.918Z,4.93
2023-05-25T13:21:10.560Z,5.00
2023-05-25T13:23:35.380Z,4.57
2023-05-25T13:26:00.005Z,4.22
2023-05-25T13:28:26.047Z,4.75
2023-05-25T13:30:50.743Z,4.45
2023-05-25T13:33:15.319Z,4.93
2023-05-25T13:35:45.979Z,5.55
2023-05-25T13:38:11.282Z,5.13
2023-05-25T13:40:36.070Z,5.00
2023-05-25T13:43:00.709Z,4.97
2023-05-25T13:45:26.583Z,4.07
2023-05-25T13:47:51.635Z,4.00
2023-05-25T13:50:16.261Z,3.85
2023-05-25T13:52:40.756Z,4.10
2023-05-25T13:55:05.888Z,4.50
2023-05-25T13:57:30.516Z,4.60
2023-05-25T13:59:55.157Z,4.60
2023-05-25T14:02:21.230Z,4.68
2023-05-25T14:04:45.817Z,4.90
2023-05-25T14:07:11.257Z,4.97
2023-05-25T14:09:35.696Z,5.13
2023-05-25T14:12:00.249Z,5.40
2023-05-25T14:14:31.895Z,5.95
2023-05-25T14:16:57.051Z,5.40
2023-05-25T14:19:23.420Z,5.10
2023-05-25T14:21:56.562Z,5.40
2023-05-25T14:24:28.615Z,5.38
2023-05-25T14:26:53.418Z,5.30
2023-05-25T14:29:18.020Z,5.95
2023-05-25T14:31:42.501Z,5.55
2023-05-25T14:34:07.132Z,5.35
2023-05-25T14:36:33.010Z,5.25
2023-05-25T14:38:57.443Z,5.65
2023-05-25T14:41:22.792Z,5.63
2023-05-25T14:43:47.470Z,4.80
2023-05-25T14:46:11.935Z,5.00
2023-05-25T14:48:36.482Z,5.13
2023-05-25T14:51:02.817Z,5.00
2023-05-25T14:53:28.754Z,4.55
2023-05-25T14:55:53.764Z,5.22
2023-05-25T14:58:18.160Z,5.60
2023-05-25T15:00:42.596Z,4.82
2023-05-25T15:03:07.339Z,4.55
2023-05-25T15:05:32.009Z,4.75
2023-05-25T15:07:56.605Z,4.35
2023-05-25T15:10:22.640Z,4.60
2023-05-25T15:12:47.136Z,4.40
2023-05-25T15:15:13.000Z,4.63
2023-05-25T15:17:37.444Z,4.65
2023-05-25T15:20:02.057Z,5.05
2023-05-25T15:22:30.140Z,4.53
2023-05-25T15:24:54.991Z,4.93
2023-05-25T15:27:21.439Z,5.55
2023-05-25T15:29:47.412Z,5.97
2023-05-25T15:32:13.794Z,6.05
2023-05-25T15:34:38.447Z,5.60
2023-05-25T15:37:03.032Z,5.30
2023-05-25T15:39:27.604Z,5.43
2023-05-25T15:41:52.135Z,6.22
2023-05-25T15:44:18.354Z,5.85
2023-05-25T15:46:43.051Z,5.70
2023-05-25T15:49:11.491Z,5.50
2023-05-25T15:51:36.378Z,4.65
2023-05-25T15:54:01.087Z,5.35
2023-05-25T15:56:26.456Z,5.50
2023-05-25T15:58:51.294Z,5.15
2023-05-25T16:01:17.489Z,5.40
2023-05-25T16:03:43.322Z,4.50
2023-05-25T16:06:09.466Z,5.10
2023-05-25T16:08:33.978Z,5.75
2023-05-25T16:10:58.706Z,5.75
2023-05-25T16:13:23.360Z,4.82
2023-05-25T16:15:48.143Z,5.35
2023-05-25T16:18:14.090Z,5.00
2023-05-25T16:20:38.792Z,5.13
2023-05-25T16:23:03.773Z,4.97
2023-05-25T16:25:28.473Z,5.25
2023-05-25T16:27:53.210Z,4.88
2023-05-25T16:30:18.266Z,5.53
2023-05-25T16:32:42.814Z,5.15
2023-05-25T16:35:09.686Z,5.15
2023-05-25T16:37:34.249Z,5.70
2023-05-25T16:39:58.774Z,5.65
2023-05-25T16:42:25.117Z,5.30
2023-05-25T16:44:49.755Z,5.55
2023-05-25T16:47:14.539Z,5.25
2023-05-25T16:49:39.122Z,6.10
2023-05-25T16:52:05.265Z,5.88
2023-05-25T16:54:29.962Z,6.60
2023-05-25T16:56:54.533Z,5.63
2023-05-25T16:59:19.104Z,5.63
2023-05-25T17:01:43.638Z,6.70
2023-05-25T17:04:08.433Z,6.13
2023-05-25T17:06:33.190Z,5.97
2023-05-25T17:08:59.155Z,6.45
2023-05-25T17:11:26.422Z,5.97
2023-05-25T17:13:51.325Z,5.88
2023-05-25T17:16:15.891Z,5.90
2023-05-25T17:18:41.715Z,5.72
2023-05-25T17:21:06.183Z,5.80
2023-05-25T17:23:30.729Z,5.70
2023-05-25T17:25:56.680Z,6.20
2023-05-25T17:28:21.351Z,5.82
2023-05-25T17:30:46.139Z,5.75
2023-05-25T17:33:10.962Z,5.88
2023-05-25T17:35:35.611Z,5.60
2023-05-25T17:38:00.270Z,5.90
2023-05-25T17:40:24.914Z,5.90
2023-05-25T17:42:51.072Z,5.28
2023-05-25T17:45:15.853Z,5.97
2023-05-25T17:47:41.537Z,5.80
2023-05-25T17:50:06.833Z,5.90
2023-05-25T17:52:31.754Z,5.78
2023-05-25T17:54:56.330Z,5.88
2023-05-25T17:57:20.867Z,6.43
2023-05-25T17:59:46.814Z,5.85
2023-05-25T18:02:11.534Z,5.60
2023-05-25T18:04:38.108Z,6.15
2023-05-25T18:07:02.658Z,5.75
2023-05-25T18:09:27.447Z,6.18
2023-05-25T18:11:55.102Z,5.93
2023-05-25T18:14:19.892Z,6.10
2023-05-25T18:16:46.070Z,6.03
2023-05-25T18:19:10.749Z,5.72
2023-05-25T18:21:36.177Z,6.88
2023-05-25T18:24:00.775Z,5.40
2023-05-25T18:26:25.350Z,6.10
2023-05-25T18:28:50.081Z,5.38
2023-05-25T18:31:14.840Z,6.50
2023-05-25T18:33:41.263Z,5.78
2023-05-25T18:36:06.203Z,5.88
2023-05-25T18:38:30.807Z,5.03
2023-05-25T18:40:55.311Z,5.75
2023-05-25T18:43:19.900Z,6.18
2023-05-25T18:45:44.570Z,6.93
2023-05-25T18:48:09.344Z,5.80
2023-05-25T18:50:35.284Z,5.78
2023-05-25T18:53:00.116Z,5.88
2023-05-25T18:55:24.685Z,5.95
2023-05-25T18:57:49.276Z,9.05
2023-05-25T19:00:15.001Z,6.35
2023-05-25T19:02:39.727Z,6.45
2023-05-25T19:05:04.352Z,6.55
2023-05-25T19:07:30.904Z,6.90
2023-05-25T19:09:55.556Z,6.18
2023-05-25T19:12:20.183Z,6.50
2023-05-25T19:14:44.993Z,6.20
2023-05-25T19:17:09.689Z,6.00
2023-05-25T19:19:34.372Z,5.75
2023-05-25T19:21:59.113Z,6.28
2023-05-25T19:24:25.377Z,5.97
2023-05-25T19:26:50.121Z,7.05
2023-05-25T19:29:14.836Z,5.97
2023-05-25T19:31:39.613Z,6.63
2023-05-25T19:34:04.225Z,5.97
2023-05-25T19:36:28.940Z,6.95
2023-05-25T19:38:53.688Z,6.47
2023-05-25T19:41:19.683Z,7.05
2023-05-25T19:43:44.559Z,6.30
2023-05-25T19:46:09.569Z,6.45
2023-05-25T19:48:34.123Z,6.63
2023-05-25T19:50:59.327Z,6.80
2023-05-25T19:53:24.014Z,6.53
2023-05-25T19:55:49.040Z,6.07
2023-05-25T19:58:15.276Z,6.63
2023-05-25T20:00:39.868Z,6.68
2023-05-25T20:03:04.847Z,5.85
2023-05-25T20:05:29.749Z,6.53
2023-05-25T20:07:56.114Z,6.85
2023-05-25T20:10:21.155Z,5.90
2023-05-25T20:12:45.712Z,6.75
2023-05-25T20:15:11.894Z,6.47
2023-05-25T20:17:37.704Z,6.38
2023-05-25T20:20:04.033Z,6.30
2023-05-25T20:22:29.494Z,6.07
2023-05-25T20:24:54.478Z,6.18
2023-05-25T20:27:19.074Z,6.45
2023-05-25T20:29:43.575Z,6.55
2023-05-25T20:32:09.366Z,6.38
2023-05-25T20:34:33.974Z,6.60
2023-05-25T20:36:58.460Z,6.75
2023-05-25T20:39:22.995Z,6.90
2023-05-25T20:41:47.464Z,6.25
2023-05-25T20:44:11.980Z,6.38
2023-05-25T20:46:36.481Z,6.18
2023-05-25T20:49:03.399Z,6.20
2023-05-25T20:51:27.845Z,6.75
2023-05-25T20:53:55.435Z,6.07
2023-05-25T20:56:19.793Z,6.57
2023-05-25T20:58:49.791Z,6.70
2023-05-25T21:01:14.537Z,6.35
2023-05-25T21:03:39.834Z,5.90
2023-05-25T21:06:06.343Z,6.50
2023-05-25T21:08:32.073Z,6.55
2023-05-25T21:10:57.109Z,6.25
2023-05-25T21:13:21.548Z,7.22
2023-05-25T21:15:46.293Z,6.38
2023-05-25T21:18:10.999Z,6.28
2023-05-25T21:20:35.712Z,6.88
2023-05-25T21:23:02.654Z,7.65
2023-05-25T21:25:27.337Z,6.60
2023-05-25T21:27:51.758Z,5.90
2023-05-25T21:30:16.754Z,5.55
2023-05-25T21:32:41.453Z,5.63
2023-05-25T21:35:06.057Z,5.75
2023-05-25T21:37:30.697Z,6.32
2023-05-25T21:39:56.639Z,5.43
2023-05-25T21:42:21.283Z,5.32
2023-05-25T21:44:45.836Z,5.43
2023-05-25T21:47:10.404Z,5.13
2023-05-25T21:49:35.064Z,5.53
2023-05-25T21:51:59.711Z,5.03
2023-05-25T21:54:24.397Z,4.70
2023-05-25T21:56:50.536Z,4.90
2023-05-25T21:59:14.946Z,5.43
2023-05-25T22:01:39.598Z,5.05
2023-05-25T22:04:04.146Z,4.53
2023-05-25T22:06:28.579Z,4.60
2023-05-25T22:08:53.068Z,5.00
2023-05-25T22:11:17.512Z,4.93
2023-05-25T22:13:43.722Z,4.95
2023-05-25T22:16:08.653Z,4.90
2023-05-25T22:18:33.309Z,4.97
2023-05-25T22:20:57.800Z,4.68
2023-05-25T22:23:22.383Z,4.25
2023-05-25T22:25:47.956Z,4.72
2023-05-25T22:28:12.604Z,4.72
2023-05-25T22:30:38.845Z,5.13
2023-05-25T22:33:03.394Z,4.53
2023-05-25T22:35:27.850Z,4.50
2023-05-25T22:37:52.294Z,5.20
2023-05-25T22:40:17.559Z,4.63
2023-05-25T22:42:43.305Z,4.50
2023-05-25T22:45:09.436Z,5.00
2023-05-25T22:47:35.366Z,5.07
2023-05-25T22:49:59.848Z,4.28
2023-05-25T22:52:24.373Z,4.65
2023-05-25T22:54:48.783Z,4.95
2023-05-25T22:57:13.386Z,4.72
2023-05-25T22:59:37.916Z,4.82
2023-05-25T23:02:02.772Z,4.38
2023-05-25T23:04:28.863Z,4.63
2023-05-25T23:06:53.339Z,4.78
2023-05-25T23:09:17.879Z,4.63
2023-05-25T23:11:42.349Z,5.03
2023-05-25T23:14:07.712Z,4.35
2023-05-25T23:16:32.317Z,4.82
2023-05-25T23:18:57.256Z,4.45
2023-05-25T23:21:23.585Z,4.18
2023-05-25T23:23:48.260Z,4.40
2023-05-25T23:26:13.034Z,4.63
2023-05-25T23:28:37.909Z,4.07
2023-05-25T23:31:02.655Z,4.40
2023-05-25T23:33:29.246Z,4.40
2023-05-25T23:35:54.173Z,4.22
2023-05-25T23:38:20.096Z,4.60
2023-05-25T23:40:44.796Z,4.45
2023-05-25T23:43:09.459Z,4.47
2023-05-25T23:45:34.100Z,4.53
2023-05-25T23:47:58.832Z,4.18
2023-05-25T23:50:24.622Z,5.05
2023-05-25T23:52:49.126Z,3.85
2023-05-25T23:55:15.462Z,4.80
2023-05-25T23:57:40.487Z,4.20
